Terminal Aerodrome Forecast
Issued by NWS Sioux Falls, SD

Home | Current Version | Previous Version | Graphics & Text | Print | Product List | Glossary Off
Versions: 1 2 3 4 5 6 7 8 9 10 11 12 13 14 15 16 17 18 19 20

000
FTUS43 KFSD 241730
TAFHON
TAF
KHON 241730Z 2418/2518 28011KT P6SM OVC100
     FM242200 29011KT P6SM -RA OVC040
     FM250130 32016G28KT P6SM -RA OVC025
     FM250400 34018G28KT 3SM -SN OVC012
     FM251200 34013KT P6SM BKN012=

USA.gov is the U.S. government's official web portal to all federal, state and local government web resources and services.